Time;durP1;ratioP1;P1;durP2;ratioP2;P2;SDS_P1;SDS_P2;PMS_P1;PMS_P2;Temp;Humidity;BMP_temperature;BMP_pressure;BME280_temperature;BME280_humidity;BME280_pressure;Samples;Min_cycle;Max_cycle;Signal;HPM_P1;HPM_P2
2023/04/14 00:05:00;;;;;;;12.20;4.85;;;;;;;1.97;100.00;100833.44;10371757;28;20057;-78
2023/04/14 00:10:01;;;;;;;14.43;4.43;;;;;;;1.96;100.00;100820.91;10352997;28;20574;-77
2023/04/14 00:15:02;;;;;;;21.40;4.18;;;;;;;1.89;100.00;100822.75;10372853;28;20337;-77
2023/04/14 00:20:03;;;;;;;17.63;5.35;;;;;;;1.99;100.00;100831.38;10374324;28;20137;-78
2023/04/14 00:25:03;;;;;;;17.50;4.97;;;;;;;1.98;100.00;100826.97;10354525;28;20038;-76
2023/04/14 00:30:04;;;;;;;13.88;4.78;;;;;;;1.99;100.00;100837.63;10370786;28;20084;-76
2023/04/14 00:35:05;;;;;;;13.95;5.00;;;;;;;2.01;100.00;100851.84;10354221;28;20063;-77
2023/04/14 00:40:08;;;;;;;15.73;5.05;;;;;;;2.00;100.00;100860.19;10354745;28;20040;-77
2023/04/14 00:45:08;;;;;;;17.27;6.93;;;;;;;1.94;100.00;100860.97;10338884;28;20037;-76
2023/04/14 00:50:09;;;;;;;22.38;6.90;;;;;;;1.92;100.00;100852.19;10355022;28;20030;-76
2023/04/14 00:55:10;;;;;;;15.30;5.55;;;;;;;1.93;100.00;100856.59;10353177;28;20040;-76
2023/04/14 01:00:11;;;;;;;13.55;5.97;;;;;;;1.94;100.00;100866.41;10353171;28;20541;-76
2023/04/14 01:05:11;;;;;;;17.67;5.65;;;;;;;1.93;100.00;100886.47;10353226;28;20056;-70
2023/04/14 01:10:12;;;;;;;18.50;6.25;;;;;;;1.79;100.00;100863.81;10370180;28;20037;-77
2023/04/14 01:15:37;;;;;;;15.27;5.97;;;;;;;1.92;100.00;100890.22;10387986;28;20046;-76
2023/04/14 01:20:45;;;;;;;16.95;6.93;;;;;;;1.97;100.00;100904.03;10378235;28;20404;-78
2023/04/14 01:26:07;;;;;;;14.52;5.00;;;;;;;1.97;100.00;100906.75;10360706;28;20056;-77
2023/04/14 01:43:11;;;;;;;17.88;6.07;;;;;;;1.44;100.00;100857.44;11130552;23;20044;-89
2023/04/14 01:48:12;;;;;;;14.65;6.55;;;;;;;0.70;100.00;100720.34;10168491;29;20360;-91
2023/04/14 01:53:14;;;;;;;11.15;4.90;;;;;;;0.50;100.00;100704.75;10116126;29;20047;-91
2023/04/14 01:58:15;;;;;;;11.48;5.43;;;;;;;-0.16;100.00;100599.28;10141116;29;20115;-91
2023/04/14 02:03:17;;;;;;;14.45;5.80;;;;;;;0.70;100.00;100794.34;10174389;29;20032;-90
2023/04/14 02:08:19;;;;;;;14.18;6.53;;;;;;;1.42;100.00;100887.47;10190506;29;20035;-91
2023/04/14 02:13:20;;;;;;;15.27;5.43;;;;;;;0.23;100.00;100705.47;10187495;29;20054;-91
2023/04/14 02:18:21;;;;;;;18.45;5.68;;;;;;;1.00;100.00;100819.47;10184503;29;20037;-91
2023/04/14 02:23:22;;;;;;;12.52;5.63;;;;;;;1.60;100.00;100925.84;10185460;29;20094;-91
2023/04/14 02:28:26;;;;;;;19.27;6.43;;;;;;;0.98;100.00;100836.97;10191530;28;20082;-91
2023/04/14 02:33:31;;;;;;;14.30;6.40;;;;;;;1.79;100.00;100956.94;10215142;28;20036;-90
2023/04/14 02:38:38;;;;;;;14.48;6.50;;;;;;;0.62;100.00;100759.25;10176758;28;20038;-91
2023/04/14 02:43:43;;;;;;;;;;;;;;;2.04;100.00;100926.66;10121797;28;20087;-91
2023/04/14 02:48:49;;;;;;;15.30;5.93;;;;;;;1.20;100.00;100819.69;10173960;28;19982;-91
2023/04/14 02:53:52;;;;;;;15.27;6.95;;;;;;;1.34;100.00;100828.75;10146589;29;20110;-91
2023/04/14 02:58:53;;;;;;;19.05;5.63;;;;;;;2.40;100.00;100958.28;10131494;28;20020;-91
2023/04/14 03:03:56;;;;;;;10.35;5.20;;;;;;;1.92;100.00;100866.63;10131853;28;20031;-91
2023/04/14 03:09:00;;;;;;;14.32;5.88;;;;;;;1.74;100.00;100810.13;10148232;28;20027;-91
2023/04/14 03:14:03;;;;;;;17.60;6.18;;;;;;;2.40;100.00;100901.22;10150687;29;20047;-91
2023/04/14 03:19:06;;;;;;;13.88;5.07;;;;;;;2.07;100.00;100854.81;10100151;29;20039;-92
2023/04/14 03:24:07;;;;;;;8.95;4.72;;;;;;;2.50;100.00;100904.41;10145347;29;20048;-91
2023/04/14 03:29:09;;;;;;;10.50;4.93;;;;;;;1.74;100.00;100774.84;10164304;29;20051;-92
2023/04/14 03:34:10;;;;;;;14.63;5.25;;;;;;;1.84;100.00;100789.91;10166724;29;20543;-92
2023/04/14 03:39:13;;;;;;;11.60;4.60;;;;;;;2.01;100.00;100802.16;10114532;29;20496;-92
2023/04/14 03:44:17;;;;;;;9.30;4.65;;;;;;;1.63;100.00;100712.13;10057402;29;20039;-91
2023/04/14 03:49:19;;;;;;;10.98;4.72;;;;;;;2.18;100.00;100844.22;10123071;29;20040;-91
2023/04/14 03:54:24;;;;;;;10.85;4.95;;;;;;;1.29;100.00;100684.78;10078475;29;20047;-92
2023/04/14 03:59:26;;;;;;;13.90;4.90;;;;;;;1.52;100.00;100727.09;10160837;28;20429;-90
2023/04/14 04:04:26;;;;;;;14.70;5.30;;;;;;;1.53;100.00;100783.00;10217906;28;20031;-91
2023/04/14 04:09:28;;;;;;;13.35;5.13;;;;;;;2.20;100.00;100929.06;10195443;28;20418;-91
2023/04/14 04:14:29;;;;;;;7.65;4.65;;;;;;;1.71;100.00;100848.50;10208089;28;20182;-91
2023/04/14 04:19:30;;;;;;;7.88;4.68;;;;;;;0.79;100.00;100762.56;10181847;28;20055;-91
2023/04/14 04:24:32;;;;;;;11.32;5.25;;;;;;;1.25;100.00;100838.09;10152201;28;20046;-90
2023/04/14 04:29:33;;;;;;;11.43;5.22;;;;;;;0.62;100.00;100761.09;10209765;29;20050;-91
2023/04/14 04:34:34;;;;;;;17.40;6.55;;;;;;;0.56;100.00;100760.03;10157591;28;20051;-92
2023/04/14 04:39:35;;;;;;;15.43;5.55;;;;;;;0.27;100.00;100744.66;10143772;28;20038;-91
2023/04/14 04:44:35;;;;;;;15.73;6.25;;;;;;;0.86;100.00;100852.91;10162189;28;20079;-89
2023/04/14 04:49:39;;;;;;;16.20;6.68;;;;;;;0.44;100.00;100765.09;10158645;29;20035;-88
2023/04/14 04:54:40;;;;;;;12.60;6.05;;;;;;;0.80;100.00;100838.22;10181494;29;20043;-88
2023/04/14 04:59:40;;;;;;;12.75;7.30;;;;;;;1.73;100.00;100984.84;10186836;29;20034;-89
2023/04/14 05:04:41;;;;;;;14.38;7.97;;;;;;;2.02;100.00;100966.75;10193693;29;20038;-89
2023/04/14 05:09:42;;;;;;;15.15;8.30;;;;;;;1.72;100.00;100882.75;10175301;28;20091;-89
2023/04/14 05:14:42;;;;;;;16.92;8.07;;;;;;;2.49;100.00;100945.38;10188569;29;20078;-89
2023/04/14 05:19:43;;;;;;;14.65;7.38;;;;;;;2.43;100.00;100893.47;10190516;29;20027;-89
2023/04/14 05:24:50;;;;;;;13.32;6.65;;;;;;;3.08;100.00;100938.53;10192428;29;20570;-89
2023/04/14 05:29:51;;;;;;;13.02;6.45;;;;;;;3.21;100.00;100927.72;10206420;29;20051;-89
2023/04/14 05:34:51;;;;;;;9.90;5.85;;;;;;;3.64;100.00;100949.19;10206080;29;20431;-89
2023/04/14 05:39:52;;;;;;;13.38;5.78;;;;;;;2.96;100.00;100841.22;10192848;28;20023;-89
2023/04/14 05:44:52;;;;;;;13.95;5.82;;;;;;;4.11;100.00;101009.97;10188995;28;21400;-90
2023/04/14 05:49:53;;;;;;;8.02;4.53;;;;;;;3.16;100.00;100867.63;10197483;29;20387;-88
2023/04/14 05:54:53;;;;;;;15.93;6.63;;;;;;;3.37;100.00;100875.66;10211138;29;20491;-89
2023/04/14 05:59:54;;;;;;;7.95;4.70;;;;;;;3.24;100.00;100867.44;10211574;29;20039;-89
2023/04/14 06:04:55;;;;;;;7.70;4.47;;;;;;;3.35;100.00;100888.63;10194923;29;20110;-90
2023/04/14 06:09:55;;;;;;;9.60;4.90;;;;;;;3.84;100.00;100982.75;10192738;28;20038;-90
2023/04/14 06:14:56;;;;;;;13.90;5.25;;;;;;;4.02;100.00;100973.94;10209769;28;20071;-90
2023/04/14 06:19:57;;;;;;;11.85;5.53;;;;;;;4.33;100.00;100986.09;10225292;29;20102;-90
2023/04/14 06:24:57;;;;;;;14.13;6.28;;;;;;;4.11;100.00;100901.00;10196956;29;20038;-90
2023/04/14 06:29:59;;;;;;;12.13;4.95;;;;;;;5.07;100.00;100983.25;10210775;28;20035;-90
2023/04/14 06:34:59;;;;;;;6.30;3.45;;;;;;;4.61;100.00;100840.50;10210193;29;20102;-90
2023/04/14 06:40:03;;;;;;;10.43;3.63;;;;;;;5.92;100.00;100974.81;10177529;28;20031;-89
2023/04/14 06:45:03;;;;;;;8.18;3.40;;;;;;;6.03;100.00;100936.69;10208959;28;20545;-89
2023/04/14 06:50:04;;;;;;;10.23;3.40;;;;;;;6.21;100.00;100935.91;10194145;28;20027;-89
2023/04/14 06:55:05;;;;;;;5.65;3.03;;;;;;;6.31;100.00;100888.09;10225003;28;20059;-90
2023/04/14 07:00:08;;;;;;;11.38;2.40;;;;;;;6.58;100.00;100894.94;10195613;28;20035;-91
2023/04/14 07:05:08;;;;;;;7.05;2.75;;;;;;;6.17;100.00;100778.03;10216407;28;20033;-88
2023/04/14 07:10:09;;;;;;;10.68;3.63;;;;;;;7.00;100.00;100870.44;10218325;28;20486;-88
2023/04/14 07:15:10;;;;;;;8.15;2.40;;;;;;;7.27;100.00;100864.59;10229965;28;20049;-89
2023/04/14 07:20:11;;;;;;;6.63;3.00;;;;;;;8.31;100.00;100962.06;10209506;29;20406;-89
2023/04/14 07:25:11;;;;;;;11.18;2.92;;;;;;;7.56;100.00;100832.75;10224538;29;20110;-89
2023/04/14 07:30:12;;;;;;;7.50;2.90;;;;;;;8.29;100.00;100905.56;10209061;29;20387;-89
2023/04/14 07:35:12;;;;;;;6.85;2.22;;;;;;;7.68;100.00;100797.16;10207875;29;20055;-90
2023/04/14 07:40:13;;;;;;;9.10;3.42;;;;;;;8.15;100.00;100854.75;10192159;28;20053;-90
2023/04/14 07:45:13;;;;;;;9.00;2.17;;;;;;;8.06;100.00;100815.03;10177851;28;20136;-89
2023/04/14 07:50:14;;;;;;;6.85;2.20;;;;;;;8.60;100.00;100903.53;10207268;29;20475;-89
2023/04/14 07:55:15;;;;;;;7.28;1.73;;;;;;;7.81;100.00;100776.91;10222968;29;20498;-91
2023/04/14 08:00:16;;;;;;;5.78;1.73;;;;;;;9.19;100.00;100941.84;10207247;28;20272;-87
2023/04/14 08:05:16;;;;;;;8.88;2.47;;;;;;;8.52;100.00;100794.16;10191010;29;20027;-89
2023/04/14 08:10:17;;;;;;;8.50;2.17;;;;;;;8.54;100.00;100752.72;10188416;29;20056;-88
2023/04/14 08:15:17;;;;;;;3.67;1.60;;;;;;;9.46;100.00;100876.16;10205353;28;20075;-88
2023/04/14 08:20:18;;;;;;;8.07;3.05;;;;;;;9.04;100.00;100763.88;10219280;29;20038;-88
2023/04/14 08:25:19;;;;;;;6.60;1.30;;;;;;;9.80;100.00;100854.22;10211944;29;20114;-89
2023/04/14 08:30:19;;;;;;;7.38;1.55;;;;;;;9.58;100.00;100768.06;10209033;29;20046;-88
2023/04/14 08:35:22;;;;;;;12.10;1.75;;;;;;;9.97;100.00;100810.19;10205196;29;20035;-88
2023/04/14 08:40:23;;;;;;;9.88;2.10;;;;;;;10.33;100.00;100841.00;10203556;28;20023;-88
2023/04/14 08:45:23;;;;;;;7.15;1.48;;;;;;;11.15;100.00;100932.97;10182035;29;20039;-89
2023/04/14 08:50:25;;;;;;;10.07;1.55;;;;;;;10.94;100.00;100887.81;10182910;29;20063;-89
2023/04/14 08:55:25;;;;;;;6.43;1.60;;;;;;;10.56;100.00;100773.88;10167969;29;20035;-88
2023/04/14 09:00:26;;;;;;;8.52;1.95;;;;;;;11.03;100.00;100811.03;10169788;29;20028;-89
2023/04/14 09:05:27;;;;;;;5.10;1.73;;;;;;;10.69;100.00;100734.13;10154067;29;20035;-88
2023/04/14 09:10:29;;;;;;;6.38;1.67;;;;;;;11.84;100.00;100854.25;10154686;29;20040;-89
2023/04/14 09:15:29;;;;;;;9.65;2.13;;;;;;;11.57;100.00;100810.19;10171530;29;20046;-89
2023/04/14 09:20:30;;;;;;;4.65;1.55;;;;;;;12.49;100.00;100940.63;10183185;29;20028;-88
2023/04/14 09:25:30;;;;;;;13.40;2.22;;;;;;;11.97;100.00;100792.31;10176647;29;20043;-88
2023/04/14 09:30:31;;;;;;;7.22;2.00;;;;;;;12.52;100.00;100846.19;10177802;29;20043;-88
2023/04/14 09:35:44;;;;;;;7.75;2.53;;;;;;;12.48;100.00;100826.56;10214373;28;20043;-88
2023/04/14 09:40:45;;;;;;;9.80;2.10;;;;;;;12.93;100.00;100887.81;10200897;28;20027;-90
2023/04/14 09:45:46;;;;;;;8.80;3.63;;;;;;;12.95;100.00;100835.88;10223795;28;20031;-90
2023/04/14 09:51:08;;;;;;;7.43;2.70;;;;;;;12.54;100.00;100758.38;10201167;28;20098;-89
2023/04/14 09:56:10;;;;;;;10.20;3.55;;;;;;;12.95;100.00;100812.97;10201813;28;20482;-90
2023/04/14 10:01:25;;;;;;;12.70;4.38;;;;;;;12.63;100.00;100715.34;10209993;28;20475;-91
2023/04/14 10:06:27;;;;;;;9.63;3.70;;;;;;;12.61;100.00;100739.66;10193051;28;20062;-88
2023/04/14 10:11:29;;;;;;;11.23;4.07;;;;;;;13.14;100.00;100750.53;10177367;28;20035;-88
2023/04/14 10:16:30;;;;;;;12.75;4.65;;;;;;;13.54;100.00;100795.94;10191714;29;20043;-88
2023/04/14 10:21:30;;;;;;;8.75;4.10;;;;;;;13.38;100.00;100737.03;10207987;29;20588;-88
2023/04/14 10:26:31;;;;;;;10.40;4.05;;;;;;;13.44;100.00;100730.41;10206821;28;20104;-90
2023/04/14 10:31:35;;;;;;;11.55;3.42;;;;;;;14.38;100.00;100893.31;10192597;29;20519;-89
2023/04/14 10:36:38;;;;;;;11.48;4.07;;;;;;;14.24;100.00;100825.75;10193833;29;20031;-92
2023/04/14 10:41:48;;;;;;;10.50;3.17;;;;;;;14.60;100.00;100790.50;10210078;28;20083;-88
2023/04/14 10:46:48;;;;;;;15.48;2.83;;;;;;;14.26;95.14;100713.63;10256867;28;20069;-89
2023/04/14 10:51:49;;;;;;;5.85;1.73;;;;;;;14.46;88.65;100725.72;10246647;28;20053;-88
2023/04/14 10:57:11;;;;;;;8.35;2.58;;;;;;;14.91;87.15;100774.56;10246581;28;20057;-88
2023/04/14 11:02:25;;;;;;;4.97;1.67;;;;;;;14.92;81.60;100739.34;10230570;28;20470;-87
2023/04/14 11:07:26;;;;;;;7.47;1.70;;;;;;;15.03;78.67;100729.88;10206677;29;20035;-88
2023/04/14 11:12:27;;;;;;;6.68;2.20;;;;;;;15.02;81.65;100727.38;10197349;29;20143;-88
2023/04/14 11:17:29;;;;;;;7.68;2.42;;;;;;;15.19;83.63;100738.06;10223629;28;20030;-89
2023/04/14 11:22:42;;;;;;;5.05;1.85;;;;;;;14.73;81.25;100726.16;10229724;28;20027;-87
2023/04/14 11:27:43;;;;;;;6.88;2.00;;;;;;;15.17;79.80;100745.84;10239662;28;20046;-92
2023/04/14 11:32:47;;;;;;;11.25;3.00;;;;;;;15.39;81.56;100726.81;10248473;28;20042;-89
2023/04/14 11:37:48;;;;;;;6.75;2.45;;;;;;;14.83;80.55;100689.25;10269489;28;20042;-89
2023/04/14 11:42:53;;;;;;;9.57;2.78;;;;;;;13.63;79.93;100597.06;10260502;28;20408;-91
2023/04/14 11:48:00;;;;;;;10.80;2.95;;;;;;;14.29;83.67;100754.59;10197600;28;20051;-89
2023/04/14 11:53:05;;;;;;;9.98;2.90;;;;;;;15.15;81.51;100693.44;10188580;29;20035;-89
2023/04/14 11:58:05;;;;;;;6.70;2.70;;;;;;;14.68;78.33;100679.09;10194892;28;20106;-89
2023/04/14 12:03:08;;;;;;;12.13;3.20;;;;;;;15.06;77.56;100818.00;10204350;29;20515;-90
2023/04/14 12:08:09;;;;;;;12.10;2.75;;;;;;;14.04;78.56;100674.41;10203957;29;20027;-90
2023/04/14 12:13:10;;;;;;;10.10;2.67;;;;;;;14.23;77.24;100694.78;10204984;28;20047;-89
2023/04/14 12:18:13;;;;;;;6.97;2.47;;;;;;;15.06;78.43;100851.25;10204160;28;20023;-89
2023/04/14 12:23:14;;;;;;;9.43;2.67;;;;;;;15.89;74.66;100699.69;10204308;28;20440;-89
2023/04/14 12:28:23;;;;;;;9.45;2.92;;;;;;;17.62;71.29;100666.09;10202617;28;20038;-89
2023/04/14 12:33:25;;;;;;;9.43;2.47;;;;;;;18.21;63.94;100591.94;10204805;29;20043;-89
2023/04/14 12:38:28;;;;;;;7.70;2.42;;;;;;;19.71;63.93;100649.34;10207213;28;20031;-89
2023/04/14 12:43:36;;;;;;;8.63;2.38;;;;;;;20.25;60.65;100666.00;10243673;28;20058;-89
2023/04/14 12:48:40;;;;;;;5.13;2.00;;;;;;;20.21;58.68;100662.19;10243620;28;20131;-89
2023/04/14 12:53:41;;;;;;;12.02;2.28;;;;;;;21.21;56.88;100712.84;10241634;28;20043;-90
2023/04/14 12:58:45;;;;;;;6.72;2.00;;;;;;;20.30;55.24;100593.16;10241550;28;20404;-88
2023/04/14 13:03:50;;;;;;;7.30;2.40;;;;;;;20.52;54.88;100669.66;10242999;28;20371;-88
2023/04/14 13:08:51;;;;;;;7.63;3.80;;;;;;;21.83;58.83;100706.00;10237511;28;20052;-88
2023/04/14 13:13:54;;;;;;;9.20;3.75;;;;;;;20.62;57.97;100644.22;10225432;28;20491;-89
2023/04/14 13:18:55;;;;;;;10.65;3.22;;;;;;;20.63;57.72;100645.88;10226989;28;20050;-90
2023/04/14 13:23:56;;;;;;;14.88;3.85;;;;;;;21.12;57.33;100621.31;10241662;28;20429;-90
2023/04/14 13:28:56;;;;;;;10.18;2.80;;;;;;;19.85;59.37;100684.75;10239810;28;20054;-90
2023/04/14 13:33:58;;;;;;;9.82;3.20;;;;;;;17.78;60.64;100634.03;10241612;28;20050;-89
2023/04/14 13:38:58;;;;;;;12.60;3.55;;;;;;;16.08;62.50;100598.97;10255899;28;20034;-89
2023/04/14 13:43:59;;;;;;;57.53;5.40;;;;;;;15.58;62.57;100606.78;10224744;28;20248;-90
2023/04/14 13:49:00;;;;;;;9.38;2.60;;;;;;;15.84;65.67;100748.91;10243610;28;20113;-90
2023/04/14 13:54:01;;;;;;;8.18;2.70;;;;;;;14.71;66.08;100672.97;10201375;28;20090;-90
2023/04/14 13:59:01;;;;;;;11.18;2.75;;;;;;;13.98;68.08;100625.72;10212380;29;20556;-92
2023/04/14 14:04:02;;;;;;;14.15;3.10;;;;;;;13.82;70.35;100644.28;10189665;29;20169;-90
2023/04/14 14:09:03;;;;;;;11.48;3.75;;;;;;;14.41;70.28;100756.22;10184101;29;20468;-90
2023/04/14 14:14:03;;;;;;;10.77;3.40;;;;;;;14.06;71.18;100699.84;10192029;29;20049;-86
2023/04/14 14:19:06;;;;;;;20.00;5.40;;;;;;;13.89;71.27;100631.81;10193846;29;20070;-92
2023/04/14 14:24:07;;;;;;;11.63;3.38;;;;;;;13.31;70.59;100485.72;10178359;29;20031;-91
2023/04/14 14:29:07;;;;;;;8.57;3.33;;;;;;;15.11;68.57;100675.72;10197192;29;20067;-90
2023/04/14 14:34:08;;;;;;;9.15;3.25;;;;;;;16.23;68.42;100634.88;10208711;29;20063;-90
2023/04/14 14:39:09;;;;;;;9.75;3.72;;;;;;;17.14;64.53;100612.38;10210018;29;20023;-91
2023/04/14 14:44:09;;;;;;;11.80;3.47;;;;;;;17.84;65.11;100612.50;10209649;28;20027;-92
2023/04/14 14:49:11;;;;;;;7.22;3.30;;;;;;;19.68;60.47;100652.78;10209122;29;20087;-92
2023/04/14 14:54:12;;;;;;;6.20;3.17;;;;;;;20.12;56.14;100647.38;10209206;29;20042;-91
2023/04/14 14:59:12;;;;;;;8.32;3.40;;;;;;;18.37;58.03;100566.50;10192776;29;20096;-92
2023/04/14 15:04:13;;;;;;;7.50;2.50;;;;;;;17.09;60.50;100567.97;10193219;29;20383;-92
2023/04/14 15:09:13;;;;;;;7.38;2.45;;;;;;;15.78;58.23;100528.03;10209610;29;20027;-92
2023/04/14 15:14:14;;;;;;;7.95;2.45;;;;;;;15.63;60.80;100660.28;10224610;28;20085;-92
2023/04/14 15:19:15;;;;;;;6.97;2.42;;;;;;;15.12;63.87;100608.06;10222151;28;20035;-92
2023/04/14 15:24:16;;;;;;;8.27;2.92;;;;;;;14.67;61.13;100555.50;10231966;28;20023;-92
2023/04/14 15:29:18;;;;;;;6.50;2.55;;;;;;;14.41;62.79;100556.81;10232002;28;20031;-94
2023/04/14 15:34:20;;;;;;;10.15;2.80;;;;;;;14.84;64.48;100670.66;10218107;28;20039;-93
2023/04/14 15:39:21;;;;;;;10.00;3.00;;;;;;;13.36;67.79;100484.88;10221769;28;20027;-91
2023/04/14 15:44:21;;;;;;;9.00;3.40;;;;;;;14.24;68.06;100688.16;10221698;28;20185;-92
2023/04/14 15:49:22;;;;;;;7.05;3.22;;;;;;;14.49;68.14;100769.47;10250306;28;20106;-92
2023/04/14 15:54:23;;;;;;;5.90;3.25;;;;;;;13.55;69.42;100622.53;10215327;28;20161;-92
2023/04/14 15:59:23;;;;;;;5.60;2.83;;;;;;;12.60;68.88;100507.94;10208051;29;20130;-92
2023/04/14 16:04:24;;;;;;;9.60;3.22;;;;;;;12.90;67.14;100484.97;10243483;29;20059;-92
2023/04/14 16:09:25;;;;;;;9.25;3.15;;;;;;;14.43;66.85;100615.50;10251084;29;20031;-91
2023/04/14 16:14:33;;;;;;;9.00;3.15;;;;;;;17.41;64.14;100680.38;10215987;29;20066;-91
2023/04/14 16:19:34;;;;;;;7.03;2.40;;;;;;;18.99;58.04;100636.41;10210418;29;20102;-92
2023/04/14 16:24:35;;;;;;;6.95;2.63;;;;;;;19.47;54.63;100565.13;10186601;28;20098;-91
2023/04/14 16:29:35;;;;;;;9.63;3.58;;;;;;;20.50;56.26;100602.06;10219866;29;20062;-90
2023/04/14 16:34:36;;;;;;;6.10;2.35;;;;;;;19.82;60.28;100689.00;10210940;29;20046;-91
2023/04/14 16:39:36;;;;;;;5.30;2.30;;;;;;;17.51;67.73;100646.78;10221348;29;20375;-91
2023/04/14 16:44:37;;;;;;;6.75;2.08;;;;;;;16.47;73.79;100690.38;10204814;28;20047;-91
2023/04/14 16:49:38;;;;;;;4.82;2.78;;;;;;;15.73;79.87;100699.06;10204265;29;20065;-93
2023/04/14 16:54:38;;;;;;;8.20;2.67;;;;;;;15.10;73.54;100694.31;10172100;29;20344;-92
2023/04/14 16:59:39;;;;;;;5.50;2.53;;;;;;;14.41;77.87;100687.81;10167317;29;20487;-92
2023/04/14 17:04:39;;;;;;;4.57;2.15;;;;;;;13.84;72.74;100604.16;10151201;29;20450;-91
2023/04/14 17:09:40;;;;;;;6.35;2.67;;;;;;;13.25;75.38;100574.44;10149149;29;20027;-91
2023/04/14 17:14:41;;;;;;;11.85;2.58;;;;;;;12.64;82.37;100589.94;10170180;29;20132;-93
2023/04/14 17:19:41;;;;;;;6.47;2.65;;;;;;;12.20;83.45;100526.97;10198545;29;20024;-93
2023/04/14 17:24:43;;;;;;;7.93;2.70;;;;;;;13.58;86.87;100696.63;10180048;29;20111;-92
2023/04/14 17:29:43;;;;;;;5.63;2.45;;;;;;;13.97;86.87;100665.56;10159733;29;20039;-92
2023/04/14 17:34:47;;;;;;;7.22;3.53;;;;;;;13.79;86.40;100667.84;10152536;29;20046;-90
2023/04/14 17:39:48;;;;;;;6.38;1.95;;;;;;;13.32;86.33;100691.13;10159133;29;20087;-91
2023/04/14 17:44:48;;;;;;;5.25;1.50;;;;;;;12.59;83.06;100633.28;10187306;28;20047;-90
2023/04/14 17:49:49;;;;;;;4.30;1.70;;;;;;;13.13;81.70;100804.97;10208307;28;20067;-92
2023/04/14 17:54:50;;;;;;;5.68;1.40;;;;;;;12.40;79.83;100740.66;10198496;28;20484;-91
2023/04/14 17:59:52;;;;;;;3.53;1.13;;;;;;;11.69;82.54;100659.16;10190523;28;20039;-92
2023/04/14 18:04:52;;;;;;;4.50;1.10;;;;;;;12.11;84.62;100782.47;10199036;28;20365;-92
2023/04/14 18:09:53;;;;;;;4.68;1.38;;;;;;;11.02;87.65;100642.16;10202134;28;20051;-91
2023/04/14 18:14:54;;;;;;;3.67;1.58;;;;;;;11.55;89.05;100812.38;10181441;29;20075;-93
2023/04/14 18:19:57;;;;;;;5.00;1.63;;;;;;;10.15;92.63;100641.28;10174534;29;20054;-92
2023/04/14 18:24:58;;;;;;;7.35;1.70;;;;;;;9.88;96.53;100664.06;10181817;28;20034;-92
2023/04/14 18:29:58;;;;;;;10.07;2.58;;;;;;;10.83;100.00;100850.19;10212658;28;20035;-93
2023/04/14 18:34:59;;;;;;;6.28;2.25;;;;;;;9.78;100.00;100760.16;10213581;28;20129;-93
2023/04/14 18:40:00;;;;;;;8.95;2.50;;;;;;;8.76;100.00;100643.09;10178125;29;20051;-93
2023/04/14 18:45:01;;;;;;;7.75;2.55;;;;;;;8.71;100.00;100704.22;10199129;28;21457;-95
2023/04/14 18:50:02;;;;;;;6.38;2.55;;;;;;;9.44;100.00;100837.09;10179366;29;20039;-92
2023/04/14 18:55:03;;;;;;;7.78;2.40;;;;;;;8.44;100.00;100693.03;10197158;29;20050;-93
2023/04/14 19:00:05;;;;;;;6.97;2.33;;;;;;;8.25;100.00;100709.63;10194786;28;20043;-93
2023/04/14 19:05:07;;;;;;;12.27;2.72;;;;;;;8.96;100.00;100852.13;10211955;29;20027;-92
2023/04/14 19:10:09;;;;;;;8.00;2.45;;;;;;;9.25;100.00;100921.63;10184370;28;20023;-91
2023/04/14 19:15:10;;;;;;;8.77;2.30;;;;;;;7.82;100.00;100729.25;10120930;29;20050;-94
2023/04/14 19:20:12;;;;;;;8.38;2.42;;;;;;;8.21;100.00;100782.50;10177091;28;20483;-92
2023/04/14 19:25:13;;;;;;;11.25;3.45;;;;;;;7.70;100.00;100751.19;10169012;29;20024;-92
2023/04/14 19:30:13;;;;;;;7.50;2.45;;;;;;;7.74;100.00;100765.25;10206134;29;20031;-92
2023/04/14 19:35:14;;;;;;;7.38;2.53;;;;;;;8.01;100.00;100836.88;10175167;28;20075;-93
2023/04/14 19:40:16;;;;;;;10.18;3.08;;;;;;;7.26;100.00;100764.38;10214699;29;20379;-93
2023/04/14 19:45:16;;;;;;;10.75;3.33;;;;;;;6.50;100.00;100678.34;10211623;28;20061;-93
2023/04/14 19:50:17;;;;;;;8.90;2.63;;;;;;;6.41;100.00;100658.72;10191597;29;20099;-93
2023/04/14 19:55:18;;;;;;;5.85;2.53;;;;;;;7.54;100.00;100853.25;10164795;29;20129;-92
2023/04/14 20:00:19;;;;;;;11.98;3.20;;;;;;;6.98;100.00;100776.78;10177743;29;20098;-93
2023/04/14 20:05:21;;;;;;;8.35;3.20;;;;;;;7.21;100.00;100821.72;10206689;28;20043;-94
2023/04/14 20:10:21;;;;;;;7.32;3.17;;;;;;;6.96;100.00;100809.00;10209548;29;20024;-93
2023/04/14 20:15:23;;;;;;;8.77;2.97;;;;;;;6.85;100.00;100812.56;10216997;29;20039;-92
2023/04/14 20:20:27;;;;;;;8.10;2.50;;;;;;;6.63;100.00;100771.16;10180939;29;20420;-92
2023/04/14 20:25:29;;;;;;;9.65;3.40;;;;;;;5.73;100.00;100637.91;10202277;29;20028;-92
2023/04/14 20:30:30;;;;;;;8.88;3.40;;;;;;;6.69;100.00;100857.78;10192309;29;20034;-93
2023/04/14 20:35:34;;;;;;;9.65;2.97;;;;;;;6.60;100.00;100810.75;10198205;29;20049;-93
2023/04/14 20:40:35;;;;;;;10.20;3.22;;;;;;;6.15;100.00;100799.31;10192248;28;20027;-93
2023/04/14 20:45:36;;;;;;;8.57;3.08;;;;;;;7.27;100.00;101007.84;10225878;28;20059;-92
2023/04/14 20:50:37;;;;;;;13.98;4.07;;;;;;;5.92;100.00;100758.94;10207052;29;20051;-92
2023/04/14 20:55:39;;;;;;;11.77;4.43;;;;;;;5.92;100.00;100806.22;10231204;29;20050;-93
2023/04/14 21:00:40;;;;;;;20.25;5.25;;;;;;;6.41;100.00;100840.03;10201765;29;20032;-91
2023/04/14 21:05:41;;;;;;;8.80;3.50;;;;;;;5.72;100.00;100737.28;10176695;28;20383;-92
2023/04/14 21:10:42;;;;;;;11.20;4.50;;;;;;;6.58;100.00;100905.06;10201113;29;20122;-92
2023/04/14 21:15:42;;;;;;;12.80;4.60;;;;;;;5.65;100.00;100789.25;10203492;28;20043;-87
2023/04/14 21:20:43;;;;;;;10.38;4.63;;;;;;;6.33;100.00;100905.13;10188180;28;20027;-88
2023/04/14 21:25:43;;;;;;;8.15;4.30;;;;;;;6.63;100.00;100930.66;10207143;28;20471;-87
2023/04/14 21:30:44;;;;;;;10.02;4.60;;;;;;;6.52;100.00;100939.63;10183180;29;20034;-87
2023/04/14 21:35:45;;;;;;;8.73;3.85;;;;;;;6.11;100.00;100880.91;10179085;28;20391;-88
2023/04/14 21:40:46;;;;;;;11.35;4.43;;;;;;;6.62;100.00;100989.19;10175749;28;20046;-88
2023/04/14 21:45:47;;;;;;;10.38;4.50;;;;;;;5.20;100.00;100765.66;10220960;28;20051;-93
2023/04/14 21:50:48;;;;;;;11.55;4.65;;;;;;;5.01;100.00;100775.66;10208113;28;20039;-92
2023/04/14 21:55:48;;;;;;;8.90;4.68;;;;;;;4.98;100.00;100748.84;10215760;29;20119;-93
2023/04/14 22:00:52;;;;;;;10.45;4.65;;;;;;;6.53;100.00;101009.69;10206208;28;20033;-92
2023/04/14 22:05:53;;;;;;;12.57;6.97;;;;;;;5.55;100.00;100868.13;10208830;28;20023;-92
2023/04/14 22:10:54;;;;;;;14.13;4.65;;;;;;;5.28;100.00;100816.44;10219042;28;20027;-92
2023/04/14 22:15:55;;;;;;;11.65;4.70;;;;;;;5.40;100.00;100839.22;10249694;28;20042;-92
2023/04/14 22:20:56;;;;;;;10.40;5.30;;;;;;;5.68;100.00;100911.72;10199183;28;20114;-92
2023/04/14 22:25:57;;;;;;;10.98;5.18;;;;;;;4.29;100.00;100689.69;10230980;29;20110;-93
2023/04/14 22:30:59;;;;;;;11.68;5.25;;;;;;;5.07;100.00;100824.97;10227701;28;20035;-92
2023/04/14 22:36:02;;;;;;;21.48;7.03;;;;;;;5.80;100.00;100969.22;10193894;28;20041;-92
2023/04/14 22:41:04;;;;;;;15.75;5.85;;;;;;;6.04;100.00;101008.59;10245250;28;20027;-93
2023/04/14 22:46:05;;;;;;;13.90;6.00;;;;;;;5.26;100.00;100894.97;10217913;28;20047;-92
2023/04/14 22:51:05;;;;;;;11.73;5.88;;;;;;;4.34;100.00;100779.78;10176846;29;20511;-93
2023/04/14 22:56:07;;;;;;;9.68;5.43;;;;;;;5.07;100.00;100920.47;10183413;29;20059;-93
2023/04/14 23:01:07;;;;;;;11.00;5.55;;;;;;;3.95;100.00;100757.06;10182948;29;20023;-92
2023/04/14 23:06:08;;;;;;;17.80;5.45;;;;;;;4.65;100.00;100908.03;10203551;29;20035;-92
2023/04/14 23:11:09;;;;;;;12.05;5.43;;;;;;;4.84;100.00;100943.66;10186214;29;20036;-92